createdAt,value
2023-05-01T00:00:13.095Z,51.259632
2023-05-01T00:01:13.035Z,51.259651
2023-05-01T00:02:13.029Z,51.259537
2023-05-01T00:03:13.104Z,51.259533
2023-05-01T00:04:13.133Z,51.259499
2023-05-01T00:05:13.105Z,51.259560
2023-05-01T00:06:13.085Z,51.259365
2023-05-01T00:07:12.983Z,51.259445
2023-05-01T00:08:12.961Z,51.259487
2023-05-01T00:09:12.957Z,51.259514
2023-05-01T00:10:12.950Z,51.259472
2023-05-01T00:11:12.959Z,51.259491
2023-05-01T00:12:12.924Z,51.259518
2023-05-01T00:13:12.933Z,51.259380
2023-05-01T00:14:12.911Z,51.259480
2023-05-01T00:15:12.900Z,51.259430
2023-05-01T00:16:13.040Z,51.259525
2023-05-01T00:17:12.892Z,51.259518
2023-05-01T00:18:12.937Z,51.259457
2023-05-01T00:19:12.861Z,51.259464
2023-05-01T00:20:12.860Z,51.259541
2023-05-01T00:21:12.865Z,51.259647
2023-05-01T00:22:12.832Z,51.259613
2023-05-01T00:23:13.840Z,51.259617
2023-05-01T00:24:12.829Z,51.259575
2023-05-01T00:25:12.812Z,51.259472
2023-05-01T00:26:12.804Z,51.259548
2023-05-01T00:27:12.778Z,51.259514
2023-05-01T00:28:12.891Z,51.259521
2023-05-01T00:29:12.766Z,51.259533
2023-05-01T00:30:12.759Z,51.259464
2023-05-01T00:31:12.838Z,51.259491
2023-05-01T00:32:12.833Z,51.259525
2023-05-01T00:33:12.731Z,51.259533
2023-05-01T00:34:12.720Z,51.259579
2023-05-01T00:35:12.701Z,51.259502
2023-05-01T00:36:12.766Z,51.259537
2023-05-01T00:37:12.684Z,51.259556
2023-05-01T00:38:12.707Z,51.259521
2023-05-01T00:39:12.805Z,51.259563
2023-05-01T00:40:12.656Z,51.259525
2023-05-01T00:41:12.659Z,51.259533
2023-05-01T00:42:12.639Z,51.259514
2023-05-01T00:43:12.663Z,51.259529
2023-05-01T00:44:12.615Z,51.259521
2023-05-01T00:45:12.609Z,51.259491
2023-05-01T00:46:12.679Z,51.259521
2023-05-01T00:47:12.591Z,51.259506
2023-05-01T00:48:12.567Z,51.259529
2023-05-01T00:49:12.574Z,51.259556
2023-05-01T00:50:12.562Z,51.259529
2023-05-01T00:51:12.586Z,51.259487
2023-05-01T00:52:12.542Z,51.259487
2023-05-01T00:53:12.534Z,51.259533
2023-05-01T00:54:12.525Z,51.259521
2023-05-01T00:55:12.512Z,51.259575
2023-05-01T00:56:12.526Z,51.259510
2023-05-01T00:57:12.486Z,51.259468
2023-05-01T00:58:12.491Z,51.259445
2023-05-01T00:59:12.474Z,51.259499
2023-05-01T01:00:12.465Z,51.259544
2023-05-01T01:01:12.488Z,51.259510
2023-05-01T01:02:12.447Z,51.259506
2023-05-01T01:03:12.433Z,51.259560
2023-05-01T01:04:12.463Z,51.259571
2023-05-01T01:05:12.418Z,51.259483
2023-05-01T01:06:12.480Z,51.259354
2023-05-01T01:07:12.396Z,51.259415
2023-05-01T01:08:12.383Z,51.259464
2023-05-01T01:09:12.370Z,51.259548
2023-05-01T01:10:12.356Z,51.259518
2023-05-01T01:11:12.433Z,51.259445
2023-05-01T01:12:12.346Z,51.259579
2023-05-01T01:13:12.343Z,51.259537
2023-05-01T01:14:12.320Z,51.259663
2023-05-01T01:15:12.306Z,51.259594
2023-05-01T01:16:12.305Z,51.259472
2023-05-01T01:17:12.312Z,51.259560
2023-05-01T01:18:12.307Z,51.259544
2023-05-01T01:19:12.275Z,51.259552
2023-05-01T01:20:12.250Z,51.259598
2023-05-01T01:21:12.268Z,51.259525
2023-05-01T01:22:12.236Z,51.259552
2023-05-01T01:23:12.216Z,51.259529
2023-05-01T01:24:12.203Z,51.259552
2023-05-01T01:25:12.198Z,51.259594
2023-05-01T01:26:12.269Z,51.259563
2023-05-01T01:27:12.186Z,51.259670
2023-05-01T01:28:12.170Z,51.259838
2023-05-01T01:29:12.147Z,51.259720
2023-05-01T01:30:13.154Z,51.259678
2023-05-01T01:31:12.285Z,51.259663
2023-05-01T01:32:13.134Z,51.259632
2023-05-01T01:33:12.129Z,51.259518
2023-05-01T01:34:12.119Z,51.259598
2023-05-01T01:35:12.096Z,51.259624
2023-05-01T01:36:12.103Z,51.259651
2023-05-01T01:37:12.080Z,51.259567
2023-05-01T01:38:12.075Z,51.259678
2023-05-01T01:39:12.062Z,51.259621
2023-05-01T01:40:12.048Z,51.259640
2023-05-01T01:41:12.062Z,51.259583
2023-05-01T01:42:12.039Z,51.259521
2023-05-01T01:43:12.024Z,51.259575
2023-05-01T01:44:12.036Z,51.259605
2023-05-01T01:45:12.002Z,51.259602
2023-05-01T01:46:12.064Z,51.259586
2023-05-01T01:47:11.988Z,51.259548
2023-05-01T01:48:12.027Z,51.259586
2023-05-01T01:49:11.956Z,51.259659
2023-05-01T01:50:11.959Z,51.259647
2023-05-01T01:51:11.969Z,51.259647
2023-05-01T01:52:11.931Z,51.259590
2023-05-01T01:53:11.927Z,51.259453
2023-05-01T01:54:11.923Z,51.259415
2023-05-01T01:55:11.910Z,51.259537
2023-05-01T01:56:11.913Z,51.259548
2023-05-01T01:57:11.878Z,51.259571
2023-05-01T01:58:11.879Z,51.259525
2023-05-01T01:59:11.858Z,51.259480
2023-05-01T02:00:11.867Z,51.259434
2023-05-01T02:01:11.882Z,51.259300
2023-05-01T02:02:11.886Z,51.259403
2023-05-01T02:03:11.877Z,51.259541
2023-05-01T02:04:11.956Z,51.259644
2023-05-01T02:05:11.793Z,51.259659
2023-05-01T02:06:11.830Z,51.259624
2023-05-01T02:07:11.776Z,51.259525
2023-05-01T02:08:11.766Z,51.259506
2023-05-01T02:09:11.756Z,51.259502
2023-05-01T02:10:11.738Z,51.259495
2023-05-01T02:11:11.750Z,51.259495
2023-05-01T02:12:11.720Z,51.259537
2023-05-01T02:13:11.713Z,51.259571
2023-05-01T02:14:11.699Z,51.259533
2023-05-01T02:15:11.788Z,51.259514
2023-05-01T02:16:11.760Z,51.259510
2023-05-01T02:17:11.684Z,51.259510
2023-05-01T02:18:11.662Z,51.259506
2023-05-01T02:19:11.652Z,51.259510
2023-05-01T02:20:11.682Z,51.259541
2023-05-01T02:21:11.725Z,51.259529
2023-05-01T02:22:11.637Z,51.259537
2023-05-01T02:23:11.618Z,51.259472
2023-05-01T02:24:11.606Z,51.259521
2023-05-01T02:25:11.577Z,51.259541
2023-05-01T02:26:11.600Z,51.259544
2023-05-01T02:27:11.578Z,51.259544
2023-05-01T02:28:11.555Z,51.259518
2023-05-01T02:29:11.548Z,51.259380
2023-05-01T02:30:11.539Z,51.259449
2023-05-01T02:31:11.606Z,51.259502
2023-05-01T02:32:11.510Z,51.259525
2023-05-01T02:33:11.570Z,51.259480
2023-05-01T02:34:11.472Z,51.259544
2023-05-01T02:35:11.502Z,51.259525
2023-05-01T02:36:11.490Z,51.259544
2023-05-01T02:37:11.468Z,51.259529
2023-05-01T02:38:11.442Z,51.259525
2023-05-01T02:39:11.429Z,51.259583
2023-05-01T02:40:11.423Z,51.259537
2023-05-01T02:41:11.426Z,51.259548
2023-05-01T02:42:11.401Z,51.259529
2023-05-01T02:43:11.393Z,51.259521
2023-05-01T02:44:11.391Z,51.259510
2023-05-01T02:45:11.372Z,51.259525
2023-05-01T02:46:11.412Z,51.259495
2023-05-01T02:47:11.431Z,51.259521
2023-05-01T02:48:11.412Z,51.259460
2023-05-01T02:49:11.325Z,51.259541
2023-05-01T02:50:11.325Z,51.259544
2023-05-01T02:51:11.318Z,51.259537
2023-05-01T02:52:11.284Z,51.259506
2023-05-01T02:53:11.287Z,51.259502
2023-05-01T02:54:11.272Z,51.259563
2023-05-01T02:55:11.255Z,51.259514
2023-05-01T02:56:11.266Z,51.259502
2023-05-01T02:57:11.235Z,51.259537
2023-05-01T02:58:11.277Z,51.259483
2023-05-01T02:59:11.217Z,51.259453
2023-05-01T03:00:11.205Z,51.259529
2023-05-01T03:01:11.284Z,51.259579
2023-05-01T03:02:11.189Z,51.259499
2023-05-01T03:03:11.211Z,51.259529
2023-05-01T03:04:11.212Z,51.259468
2023-05-01T03:05:11.149Z,51.259472
2023-05-01T03:06:11.370Z,51.259518
2023-05-01T03:07:11.130Z,51.259521
2023-05-01T03:08:11.125Z,51.259510
2023-05-01T03:09:11.097Z,51.259491
2023-05-01T03:10:12.090Z,51.259453
2023-05-01T03:11:11.094Z,51.259476
2023-05-01T03:12:11.092Z,51.259529
2023-05-01T03:13:11.068Z,51.259689
2023-05-01T03:14:11.070Z,51.259651
2023-05-01T03:15:11.053Z,51.259583
2023-05-01T03:16:11.041Z,51.259575
2023-05-01T03:17:11.038Z,51.259518
2023-05-01T03:18:11.063Z,51.259602
2023-05-01T03:19:10.995Z,51.259727
2023-05-01T03:20:11.032Z,51.259701
2023-05-01T03:21:10.986Z,51.259659
2023-05-01T03:22:10.985Z,51.259624
2023-05-01T03:23:10.950Z,51.259636
2023-05-01T03:24:10.964Z,51.259666
2023-05-01T03:25:10.932Z,51.259571
2023-05-01T03:26:10.927Z,51.259583
2023-05-01T03:27:10.915Z,51.259579
2023-05-01T03:28:11.893Z,51.259613
2023-05-01T03:29:10.876Z,51.259644
2023-05-01T03:30:10.875Z,51.259579
2023-05-01T03:31:11.032Z,51.259613
2023-05-01T03:32:10.866Z,51.259552
2023-05-01T03:33:10.863Z,51.259510
2023-05-01T03:34:10.815Z,51.259487
2023-05-01T03:35:10.925Z,51.259514
2023-05-01T03:36:10.823Z,51.259514
2023-05-01T03:37:10.799Z,51.259521
2023-05-01T03:38:10.783Z,51.259476
2023-05-01T03:39:10.762Z,51.259468
2023-05-01T03:40:10.759Z,51.259487
2023-05-01T03:41:10.783Z,51.259430
2023-05-01T03:42:10.728Z,51.259499
2023-05-01T03:43:10.724Z,51.259640
2023-05-01T03:44:10.697Z,51.259590
2023-05-01T03:45:11.726Z,51.259590
2023-05-01T03:46:10.725Z,51.259590
2023-05-01T03:47:10.679Z,51.259460
2023-05-01T03:48:10.727Z,51.259506
2023-05-01T03:49:10.687Z,51.259560
2023-05-01T03:50:10.645Z,51.259518
2023-05-01T03:51:10.661Z,51.259510
2023-05-01T03:52:10.624Z,51.259487
2023-05-01T03:53:10.624Z,51.259460
2023-05-01T03:54:10.607Z,51.259445
2023-05-01T03:55:10.600Z,51.259445
2023-05-01T03:56:10.611Z,51.259430
2023-05-01T03:57:10.572Z,51.259495
2023-05-01T03:58:11.467Z,51.259487
2023-05-01T03:59:10.561Z,51.259499
2023-05-01T04:00:10.562Z,51.259518
2023-05-01T04:01:10.542Z,51.259521
2023-05-01T04:02:10.678Z,51.259315
2023-05-01T04:03:10.601Z,51.259342
2023-05-01T04:04:10.708Z,51.259460
2023-05-01T04:05:10.538Z,51.259499
2023-05-01T04:06:10.530Z,51.259422
2023-05-01T04:07:10.490Z,51.259514
2023-05-01T04:08:10.464Z,51.259552
2023-05-01T04:09:10.461Z,51.259609
2023-05-01T04:10:10.436Z,51.259563
2023-05-01T04:11:10.440Z,51.259521
2023-05-01T04:12:10.421Z,51.259537
2023-05-01T04:13:10.397Z,51.259556
2023-05-01T04:14:10.411Z,51.259468
2023-05-01T04:15:10.379Z,51.259502
2023-05-01T04:16:10.496Z,51.259491
2023-05-01T04:17:10.400Z,51.259449
2023-05-01T04:18:10.353Z,51.259514
2023-05-01T04:19:10.351Z,51.259483
2023-05-01T04:20:10.336Z,51.259560
2023-05-01T04:21:10.360Z,51.259563
2023-05-01T04:22:10.306Z,51.259548
2023-05-01T04:23:10.294Z,51.259495
2023-05-01T04:24:10.285Z,51.259514
2023-05-01T04:25:10.288Z,51.259544
2023-05-01T04:26:10.278Z,51.259483
2023-05-01T04:27:10.245Z,51.259552
2023-05-01T04:28:10.236Z,51.259491
2023-05-01T04:29:10.225Z,51.259445
2023-05-01T04:30:10.214Z,51.259529
2023-05-01T04:31:10.268Z,51.259537
2023-05-01T04:32:10.192Z,51.259495
2023-05-01T04:33:10.218Z,51.259460
2023-05-01T04:34:10.170Z,51.259361
2023-05-01T04:35:10.159Z,51.259491
2023-05-01T04:36:10.165Z,51.259533
2023-05-01T04:37:10.144Z,51.259525
2023-05-01T04:38:10.123Z,51.259537
2023-05-01T04:39:10.122Z,51.259506
2023-05-01T04:40:11.577Z,51.259491
2023-05-01T04:41:11.097Z,51.259510
2023-05-01T04:42:10.089Z,51.259529
2023-05-01T04:43:10.068Z,51.259529
2023-05-01T04:44:10.054Z,51.259521
2023-05-01T04:45:10.045Z,51.259533
2023-05-01T04:46:10.098Z,51.259514
2023-05-01T04:47:10.104Z,51.259510
2023-05-01T04:48:10.068Z,51.259525
2023-05-01T04:49:10.012Z,51.259525
2023-05-01T04:50:10.015Z,51.259548
2023-05-01T04:51:09.995Z,51.259548
2023-05-01T04:52:09.973Z,51.259583
2023-05-01T04:53:09.971Z,51.259544
2023-05-01T04:54:09.941Z,51.259552
2023-05-01T04:55:10.020Z,51.259548
2023-05-01T04:56:09.961Z,51.259571
2023-05-01T04:57:09.908Z,51.259563
2023-05-01T04:58:09.908Z,51.259575
2023-05-01T04:59:09.893Z,51.259544
2023-05-01T05:00:09.924Z,51.259533
2023-05-01T05:01:09.910Z,51.259594
2023-05-01T05:02:09.891Z,51.259590
2023-05-01T05:03:09.900Z,51.259586
2023-05-01T05:04:09.935Z,51.259560
2023-05-01T05:05:09.851Z,51.259529
2023-05-01T05:06:09.865Z,51.259529
2023-05-01T05:07:09.815Z,51.259552
2023-05-01T05:08:09.806Z,51.259560
2023-05-01T05:09:09.801Z,51.259563
2023-05-01T05:10:42.218Z,51.259598
2023-05-01T05:11:09.802Z,51.259583
2023-05-01T05:12:09.769Z,51.259579
2023-05-01T05:13:09.763Z,51.259544
2023-05-01T05:14:09.758Z,51.259586
2023-05-01T05:15:09.738Z,51.259563
2023-05-01T05:16:09.820Z,51.259525
2023-05-01T05:17:09.722Z,51.259514
2023-05-01T05:18:09.837Z,51.259518
2023-05-01T05:19:09.707Z,51.259495
2023-05-01T05:20:09.672Z,51.259483
2023-05-01T05:21:09.694Z,51.259529
2023-05-01T05:22:09.676Z,51.259506
2023-05-01T05:23:09.665Z,51.259499
2023-05-01T05:24:09.660Z,51.259506
2023-05-01T05:25:09.640Z,51.259468
2023-05-01T05:26:09.640Z,51.259487
2023-05-01T05:27:09.615Z,51.259525
2023-05-01T05:28:09.600Z,51.259533
2023-05-01T05:29:09.589Z,51.259537
2023-05-01T05:30:09.606Z,51.259548
2023-05-01T05:31:09.594Z,51.259567
2023-05-01T05:32:09.599Z,51.259583
2023-05-01T05:33:09.583Z,51.259552
2023-05-01T05:34:09.550Z,51.259598
2023-05-01T05:35:09.535Z,51.259514
2023-05-01T05:36:09.541Z,51.259468
2023-05-01T05:37:09.522Z,51.259510
2023-05-01T05:38:09.508Z,51.259510
2023-05-01T05:39:09.490Z,51.259544
2023-05-01T05:40:09.485Z,51.259560
2023-05-01T05:41:09.488Z,51.259491
2023-05-01T05:42:09.464Z,51.259533
2023-05-01T05:43:09.460Z,51.259495
2023-05-01T05:44:09.447Z,51.259510
2023-05-01T05:45:09.436Z,51.259525
2023-05-01T05:46:09.560Z,51.259560
2023-05-01T05:47:09.414Z,51.259491
2023-05-01T05:48:09.474Z,51.259415
2023-05-01T05:49:09.406Z,51.259487
2023-05-01T05:50:09.384Z,51.259472
2023-05-01T05:51:09.418Z,51.259491
2023-05-01T05:52:09.365Z,51.259480
2023-05-01T05:53:09.356Z,51.259491
2023-05-01T05:54:09.347Z,51.259476
2023-05-01T05:55:09.330Z,51.259457
2023-05-01T05:56:09.341Z,51.259449
2023-05-01T05:57:09.306Z,51.259445
2023-05-01T05:58:09.306Z,51.259457
2023-05-01T05:59:09.308Z,51.259541
2023-05-01T06:00:09.340Z,51.259495
2023-05-01T06:01:09.333Z,51.259529
2023-05-01T06:02:09.332Z,51.259476
2023-05-01T06:03:09.358Z,51.259499
2023-05-01T06:04:09.358Z,51.259525
2023-05-01T06:05:09.319Z,51.259548
2023-05-01T06:06:09.481Z,51.259460
2023-05-01T06:07:09.231Z,51.259529
2023-05-01T06:08:09.209Z,51.259548
2023-05-01T06:09:09.220Z,51.259533
2023-05-01T06:10:09.195Z,51.259415
2023-05-01T06:11:09.377Z,51.259438
2023-05-01T06:12:09.218Z,51.259441
2023-05-01T06:13:14.273Z,51.259449
2023-05-01T06:14:10.244Z,51.259480
2023-05-01T06:15:09.162Z,51.259502
2023-05-01T06:16:09.265Z,51.259460
2023-05-01T06:17:09.147Z,51.259312
2023-05-01T06:18:09.332Z,51.259377
2023-05-01T06:19:09.114Z,51.259449
2023-05-01T06:20:09.118Z,51.259380
2023-05-01T06:21:09.129Z,51.259354
2023-05-01T06:22:09.104Z,51.259201
2023-05-01T06:23:09.083Z,51.259293
2023-05-01T06:24:09.072Z,51.259212
2023-05-01T06:25:09.086Z,51.259216
2023-05-01T06:26:09.044Z,51.259220
2023-05-01T06:27:09.065Z,51.259331
2023-05-01T06:28:09.034Z,51.259361
2023-05-01T06:29:09.011Z,51.259338
2023-05-01T06:30:09.020Z,51.259457
2023-05-01T06:31:09.069Z,51.259396
2023-05-01T06:32:09.003Z,51.259418
2023-05-01T06:33:09.067Z,51.259415
2023-05-01T06:34:08.953Z,51.259441
2023-05-01T06:35:08.957Z,51.259499
2023-05-01T06:36:08.930Z,51.259449
2023-05-01T06:37:08.944Z,51.259441
2023-05-01T06:38:08.934Z,51.259445
2023-05-01T06:39:08.925Z,51.259392
2023-05-01T06:40:08.894Z,51.259418
2023-05-01T06:41:08.908Z,51.259422
2023-05-01T06:42:08.927Z,51.259449
2023-05-01T06:43:08.861Z,51.259457
2023-05-01T06:44:08.860Z,51.259480
2023-05-01T06:45:08.871Z,51.259468
2023-05-01T06:46:08.966Z,51.259525
2023-05-01T06:47:08.972Z,51.259495
2023-05-01T06:48:08.858Z,51.259441
2023-05-01T06:49:08.802Z,51.259426
2023-05-01T06:50:08.813Z,51.259472
2023-05-01T06:51:08.773Z,51.259449
2023-05-01T06:52:08.824Z,51.259426
2023-05-01T06:53:08.765Z,51.259457
2023-05-01T06:54:08.752Z,51.259464
2023-05-01T06:55:08.767Z,51.259457
2023-05-01T06:56:08.743Z,51.259460
2023-05-01T06:57:08.792Z,51.259426
2023-05-01T06:58:22.413Z,51.259441
2023-05-01T06:59:10.705Z,51.259514
2023-05-01T07:00:08.684Z,51.259544
2023-05-01T07:01:08.733Z,51.259491
2023-05-01T07:02:08.709Z,51.259453
2023-05-01T07:03:08.712Z,51.259457
2023-05-01T07:04:08.655Z,51.259453
2023-05-01T07:05:08.676Z,51.259464
2023-05-01T07:06:08.700Z,51.259499
2023-05-01T07:07:08.817Z,51.259403
2023-05-01T07:08:08.630Z,51.259502
2023-05-01T07:09:08.613Z,51.259514
2023-05-01T07:10:08.594Z,51.259502
2023-05-01T07:11:08.576Z,51.259499
2023-05-01T07:12:08.591Z,51.259430
2023-05-01T07:13:08.564Z,51.259449
2023-05-01T07:14:08.562Z,51.259441
2023-05-01T07:15:08.566Z,51.259415
2023-05-01T07:16:08.560Z,51.259472
2023-05-01T07:17:08.551Z,51.259476
2023-05-01T07:18:08.779Z,51.259533
2023-05-01T07:19:08.505Z,51.259514
2023-05-01T07:20:08.491Z,51.259495
2023-05-01T07:21:08.477Z,51.259464
2023-05-01T07:22:08.479Z,51.259472
2023-05-01T07:23:08.452Z,51.259472
2023-05-01T07:24:08.437Z,51.259480
2023-05-01T07:25:08.444Z,51.259476
2023-05-01T07:26:08.409Z,51.259495
2023-05-01T07:27:08.442Z,51.259525
2023-05-01T07:28:08.383Z,51.259518
2023-05-01T07:29:08.402Z,51.259518
2023-05-01T07:30:08.382Z,51.259491
2023-05-01T07:31:08.383Z,51.259521
2023-05-01T07:32:08.413Z,51.259510
2023-05-01T07:33:08.388Z,51.259502
2023-05-01T07:34:08.399Z,51.259460
2023-05-01T07:35:08.317Z,51.259499
2023-05-01T07:36:08.314Z,51.259491
2023-05-01T07:37:08.349Z,51.259510
2023-05-01T07:38:08.313Z,51.259457
2023-05-01T07:39:08.286Z,51.259457
2023-05-01T07:40:08.272Z,51.259468
2023-05-01T07:41:08.268Z,51.259529
2023-05-01T07:42:08.274Z,51.259518
2023-05-01T07:43:09.309Z,51.259514
2023-05-01T07:44:08.265Z,51.259525
2023-05-01T07:45:08.294Z,51.259521
2023-05-01T07:46:08.275Z,51.259552
2023-05-01T07:47:08.224Z,51.259506
2023-05-01T07:48:08.272Z,51.259487
2023-05-01T07:49:08.211Z,51.259525
2023-05-01T07:50:08.169Z,51.259548
2023-05-01T07:51:08.164Z,51.259518
2023-05-01T07:52:08.200Z,51.259521
2023-05-01T07:53:08.145Z,51.259529
2023-05-01T07:54:08.144Z,51.259499
2023-05-01T07:55:08.293Z,51.259491
2023-05-01T07:56:08.126Z,51.259418
2023-05-01T07:57:08.159Z,51.259476
2023-05-01T07:58:08.128Z,51.259521
2023-05-01T07:59:08.105Z,51.259518
2023-05-01T08:00:08.087Z,51.259731
2023-05-01T08:01:08.165Z,51.259590
2023-05-01T08:02:08.148Z,51.259541
2023-05-01T08:03:08.206Z,51.259495
2023-05-01T08:04:08.154Z,51.259533
2023-05-01T08:05:08.054Z,51.259464
2023-05-01T08:06:08.214Z,51.259418
2023-05-01T08:07:08.075Z,51.259476
2023-05-01T08:08:08.017Z,51.259525
2023-05-01T08:09:07.996Z,51.259514
2023-05-01T08:10:07.979Z,51.259502
2023-05-01T08:11:07.977Z,51.259525
2023-05-01T08:12:08.032Z,51.259521
2023-05-01T08:13:07.956Z,51.259563
2023-05-01T08:14:07.950Z,51.259624
2023-05-01T08:15:08.247Z,51.259579
2023-05-01T08:16:07.992Z,51.259502
2023-05-01T08:17:07.991Z,51.259579
2023-05-01T08:18:08.002Z,51.259602
2023-05-01T08:19:07.957Z,51.259583
2023-05-01T08:20:07.883Z,51.259544
2023-05-01T08:21:07.876Z,51.259506
2023-05-01T08:22:07.906Z,51.259556
2023-05-01T08:23:07.895Z,51.259590
2023-05-01T08:24:07.842Z,51.259621
2023-05-01T08:25:07.848Z,51.259628
2023-05-01T08:26:07.823Z,51.259624
2023-05-01T08:27:07.865Z,51.259583
2023-05-01T08:28:08.509Z,51.259571
2023-05-01T08:29:07.794Z,51.259575
2023-05-01T08:30:07.792Z,51.259476
2023-05-01T08:31:07.810Z,51.259556
2023-05-01T08:32:07.790Z,51.259571
2023-05-01T08:33:07.867Z,51.259583
2023-05-01T08:34:07.747Z,51.259617
2023-05-01T08:35:07.761Z,51.259624
2023-05-01T08:36:07.743Z,51.259563
2023-05-01T08:37:07.753Z,51.259571
2023-05-01T08:38:07.710Z,51.259598
2023-05-01T08:39:07.697Z,51.259575
2023-05-01T08:40:07.689Z,51.259571
2023-05-01T08:41:07.670Z,51.259472
2023-05-01T08:42:07.702Z,51.259632
2023-05-01T08:43:07.677Z,51.259621
2023-05-01T08:44:07.645Z,51.259624
2023-05-01T08:45:07.647Z,51.259583
2023-05-01T08:46:07.647Z,51.259548
2023-05-01T08:47:07.949Z,51.259567
2023-05-01T08:48:07.744Z,51.259586
2023-05-01T08:49:07.622Z,51.259617
2023-05-01T08:50:07.589Z,51.259541
2023-05-01T08:51:07.576Z,51.259563
2023-05-01T08:52:07.646Z,51.259571
2023-05-01T08:53:07.570Z,51.259563
2023-05-01T08:54:07.567Z,51.259510
2023-05-01T08:55:07.523Z,51.259518
2023-05-01T08:56:07.577Z,51.259602
2023-05-01T08:57:09.733Z,51.259586
2023-05-01T08:58:07.514Z,51.259590
2023-05-01T08:59:07.494Z,51.259590
2023-05-01T09:00:07.473Z,51.259583
2023-05-01T09:01:07.513Z,51.259605
2023-05-01T09:02:07.529Z,51.259548
2023-05-01T09:03:07.594Z,51.259529
2023-05-01T09:04:07.458Z,51.259571
2023-05-01T09:05:07.436Z,51.259541
2023-05-01T09:06:07.419Z,51.259605
2023-05-01T09:07:07.485Z,51.259567
2023-05-01T09:08:07.429Z,51.259552
2023-05-01T09:09:07.399Z,51.259541
2023-05-01T09:10:07.377Z,51.259556
2023-05-01T09:11:07.378Z,51.259583
2023-05-01T09:12:07.390Z,51.259598
2023-05-01T09:13:07.369Z,51.259583
2023-05-01T09:14:07.342Z,51.259590
2023-05-01T09:15:07.341Z,51.259544
2023-05-01T09:16:07.343Z,51.259468
2023-05-01T09:17:07.359Z,51.259476
2023-05-01T09:18:07.393Z,51.259598
2023-05-01T09:19:07.308Z,51.259541
2023-05-01T09:20:07.301Z,51.259525
2023-05-01T09:21:07.266Z,51.259575
2023-05-01T09:22:07.300Z,51.259598
2023-05-01T09:23:07.294Z,51.259575
2023-05-01T09:24:07.262Z,51.259552
2023-05-01T09:25:07.232Z,51.259567
2023-05-01T09:26:07.245Z,51.259556
2023-05-01T09:27:07.252Z,51.259602
2023-05-01T09:28:07.208Z,51.259533
2023-05-01T09:29:07.196Z,51.259502
2023-05-01T09:30:07.196Z,51.259518
2023-05-01T09:31:07.215Z,51.259563
2023-05-01T09:32:07.220Z,51.259590
2023-05-01T09:33:07.265Z,51.259575
2023-05-01T09:34:07.188Z,51.259636
2023-05-01T09:35:07.197Z,51.259571
2023-05-01T09:36:07.163Z,51.259552
2023-05-01T09:37:07.147Z,51.259583
2023-05-01T09:38:07.167Z,51.259644
2023-05-01T09:39:08.093Z,51.259617
2023-05-01T09:40:07.120Z,51.259552
2023-05-01T09:41:07.096Z,51.259453
2023-05-01T09:42:07.081Z,51.259499
2023-05-01T09:43:07.076Z,51.259468
2023-05-01T09:44:07.045Z,51.259480
2023-05-01T09:45:07.032Z,51.259621
2023-05-01T09:46:07.096Z,51.259590
2023-05-01T09:47:07.052Z,51.259598
2023-05-01T09:48:07.072Z,51.259575
2023-05-01T09:49:06.996Z,51.259560
2023-05-01T09:50:06.986Z,51.259521
2023-05-01T09:51:06.972Z,51.259525
2023-05-01T09:52:06.982Z,51.259514
2023-05-01T09:53:06.959Z,51.259544
2023-05-01T09:54:06.962Z,51.259571
2023-05-01T09:55:06.948Z,51.259541
2023-05-01T09:56:06.940Z,51.259583
2023-05-01T09:57:06.941Z,51.259575
2023-05-01T09:58:06.983Z,51.259552
2023-05-01T09:59:06.895Z,51.259613
2023-05-01T10:00:06.887Z,51.259552
2023-05-01T10:01:06.962Z,51.259552
2023-05-01T10:02:07.000Z,51.259544
2023-05-01T10:03:08.472Z,51.259472
2023-05-01T10:04:06.843Z,51.259544
2023-05-01T10:05:06.833Z,51.259579
2023-05-01T10:06:06.866Z,51.259460
2023-05-01T10:07:06.842Z,51.259529
2023-05-01T10:08:06.805Z,51.259609
2023-05-01T10:09:06.836Z,51.259567
2023-05-01T10:10:06.792Z,51.259510
2023-05-01T10:11:06.779Z,51.259567
2023-05-01T10:12:06.787Z,51.259525
2023-05-01T10:13:06.756Z,51.259499
2023-05-01T10:14:07.751Z,51.259495
2023-05-01T10:15:21.120Z,51.259548
2023-05-01T10:16:08.746Z,51.259651
2023-05-01T10:17:06.791Z,51.259468
2023-05-01T10:18:06.758Z,51.259350
2023-05-01T10:19:06.729Z,51.259552
2023-05-01T10:20:06.693Z,51.259552
2023-05-01T10:21:06.714Z,51.259575
2023-05-01T10:22:06.691Z,51.259476
2023-05-01T10:23:06.663Z,51.259525
2023-05-01T10:24:06.653Z,51.259518
2023-05-01T10:25:06.650Z,51.259499
2023-05-01T10:26:07.166Z,51.259506
2023-05-01T10:27:06.705Z,51.259628
2023-05-01T10:28:06.639Z,51.259563
2023-05-01T10:29:06.596Z,51.259590
2023-05-01T10:30:06.601Z,51.259640
2023-05-01T10:31:06.634Z,51.259544
2023-05-01T10:32:06.585Z,51.259514
2023-05-01T10:33:06.603Z,51.259502
2023-05-01T10:34:06.570Z,51.259655
2023-05-01T10:35:06.561Z,51.259621
2023-05-01T10:36:06.528Z,51.259415
2023-05-01T10:37:06.598Z,51.259495
2023-05-01T10:38:06.535Z,51.259575
2023-05-01T10:39:06.495Z,51.259647
2023-05-01T10:40:06.488Z,51.259529
2023-05-01T10:41:06.490Z,51.259480
2023-05-01T10:42:06.514Z,51.259560
2023-05-01T10:43:06.467Z,51.259583
2023-05-01T10:44:06.450Z,51.259537
2023-05-01T10:45:06.441Z,51.259499
2023-05-01T10:46:06.495Z,51.259617
2023-05-01T10:47:06.459Z,51.259590
2023-05-01T10:48:06.448Z,51.259571
2023-05-01T10:49:06.415Z,51.259499
2023-05-01T10:50:06.411Z,51.259499
2023-05-01T10:51:06.364Z,51.259491
2023-05-01T10:52:06.382Z,51.259537
2023-05-01T10:53:06.369Z,51.259583
2023-05-01T10:54:06.343Z,51.259556
2023-05-01T10:55:06.330Z,51.259590
2023-05-01T10:56:06.329Z,51.259567
2023-05-01T10:57:06.340Z,51.259544
2023-05-01T10:58:06.309Z,51.259552
2023-05-01T10:59:06.297Z,51.259575
2023-05-01T11:00:06.286Z,51.259624
2023-05-01T11:01:06.277Z,51.259586
2023-05-01T11:02:06.344Z,51.259613
2023-05-01T11:03:06.324Z,51.259586
2023-05-01T11:04:06.243Z,51.259521
2023-05-01T11:05:06.280Z,51.259579
2023-05-01T11:06:06.279Z,51.259518
2023-05-01T11:07:06.332Z,51.259590
2023-05-01T11:08:06.205Z,51.259541
2023-05-01T11:09:06.185Z,51.259556
2023-05-01T11:19:19.027Z,51.259720
2023-05-01T11:20:19.004Z,51.259621
2023-05-01T11:21:19.015Z,51.259613
2023-05-01T11:22:19.029Z,51.259624
2023-05-01T11:23:18.993Z,51.259644
2023-05-01T11:24:19.010Z,51.259640
2023-05-01T11:25:18.971Z,51.259605
2023-05-01T11:26:18.948Z,51.259586
2023-05-01T11:27:18.957Z,51.259647
2023-05-01T11:28:18.908Z,51.259644
2023-05-01T11:29:18.893Z,51.259640
2023-05-01T11:30:18.897Z,51.259708
2023-05-01T11:31:18.921Z,51.259617
2023-05-01T11:32:19.054Z,51.259609
2023-05-01T11:33:19.023Z,51.259682